Terminal Aerodrome Forecast
Issued by NWS Charleston, SC

Home | Current Version | Previous Version | Text Only | Print | Product List | Glossary On
Versions: 1 2 3 4 5 6 7 8 9 10 11 12 13
283
FTUS42 KCHS 220755 AAA
TAFSAV
TAF AMD
KSAV 220755Z 2208/2306 00000KT 6SM BR SCT250
      TEMPO 2208/2212 4SM BR
     FM221400 06004KT P6SM FEW040
     FM221800 10007KT P6SM SCT050=

USA.gov is the U.S. government's official web portal to all federal, state and local government web resources and services.